sensor_id;sensor_type;location;lat;lon;timestamp;pressure;altitude;pressure_sealevel;temperature;humidity
35507;BME280;36461;52.018;21.036;2022-08-01T00:01:14;99932.57;;;15.50;100.00
35507;BME280;36461;52.018;21.036;2022-08-01T00:03:41;99930.33;;;15.51;100.00
35507;BME280;36461;52.018;21.036;2022-08-01T00:06:07;99924.24;;;15.51;100.00
35507;BME280;36461;52.018;21.036;2022-08-01T00:08:34;99925.27;;;15.48;100.00
35507;BME280;36461;52.018;21.036;2022-08-01T00:11:00;99924.98;;;15.46;100.00
35507;BME280;36461;52.018;21.036;2022-08-01T00:13:27;99925.94;;;15.44;100.00
35507;BME280;36461;52.018;21.036;2022-08-01T00:15:53;99928.91;;;15.46;100.00
35507;BME280;36461;52.018;21.036;2022-08-01T00:18:20;99924.91;;;15.47;100.00
35507;BME280;36461;52.018;21.036;2022-08-01T00:20:47;99926.77;;;15.45;100.00
35507;BME280;36461;52.018;21.036;2022-08-01T00:23:13;99927.41;;;15.41;100.00
35507;BME280;36461;52.018;21.036;2022-08-01T00:25:40;99919.11;;;15.42;100.00
35507;BME280;36461;52.018;21.036;2022-08-01T00:28:06;99917.33;;;15.42;100.00
35507;BME280;36461;52.018;21.036;2022-08-01T00:30:35;99912.09;;;15.42;100.00
35507;BME280;36461;52.018;21.036;2022-08-01T00:33:02;99910.34;;;15.43;100.00
35507;BME280;36461;52.018;21.036;2022-08-01T00:35:29;99912.09;;;15.42;100.00
35507;BME280;36461;52.018;21.036;2022-08-01T00:37:55;99912.67;;;15.48;100.00
35507;BME280;36461;52.018;21.036;2022-08-01T00:40:22;99910.25;;;15.44;100.00
35507;BME280;36461;52.018;21.036;2022-08-01T00:42:49;99914.71;;;15.42;100.00
35507;BME280;36461;52.018;21.036;2022-08-01T00:45:15;99911.24;;;15.35;100.00
35507;BME280;36461;52.018;21.036;2022-08-01T00:47:42;99910.59;;;15.38;100.00
35507;BME280;36461;52.018;21.036;2022-08-01T00:50:09;99904.44;;;15.39;100.00
35507;BME280;36461;52.018;21.036;2022-08-01T00:52:36;99905.17;;;15.41;100.00
35507;BME280;36461;52.018;21.036;2022-08-01T00:55:06;99903.52;;;15.40;100.00
35507;BME280;36461;52.018;21.036;2022-08-01T00:57:33;99910.22;;;15.37;100.00
35507;BME280;36461;52.018;21.036;2022-08-01T00:59:59;99914.14;;;15.37;100.00
35507;BME280;36461;52.018;21.036;2022-08-01T01:02:26;99906.20;;;15.39;100.00
35507;BME280;36461;52.018;21.036;2022-08-01T01:04:52;99913.22;;;15.38;100.00
35507;BME280;36461;52.018;21.036;2022-08-01T01:07:21;99912.67;;;15.40;100.00
35507;BME280;36461;52.018;21.036;2022-08-01T01:10:07;99913.70;;;15.38;100.00
35507;BME280;36461;52.018;21.036;2022-08-01T01:12:37;99910.22;;;15.37;100.00
35507;BME280;36461;52.018;21.036;2022-08-01T01:15:20;99905.47;;;15.37;100.00
35507;BME280;36461;52.018;21.036;2022-08-01T01:17:57;99906.48;;;15.34;100.00
35507;BME280;36461;52.018;21.036;2022-08-01T01:20:30;99914.05;;;15.32;100.00
35507;BME280;36461;52.018;21.036;2022-08-01T01:31:42;99912.55;;;15.27;100.00
35507;BME280;36461;52.018;21.036;2022-08-01T01:34:18;99908.25;;;15.26;100.00
35507;BME280;36461;52.018;21.036;2022-08-01T01:36:47;99914.88;;;15.25;100.00
35507;BME280;36461;52.018;21.036;2022-08-01T01:39:15;99904.90;;;15.24;100.00
35507;BME280;36461;52.018;21.036;2022-08-01T01:41:44;99911.88;;;15.24;100.00
35507;BME280;36461;52.018;21.036;2022-08-01T01:44:13;99911.05;;;15.23;100.00
35507;BME280;36461;52.018;21.036;2022-08-01T01:46:42;99916.57;;;15.19;100.00
35507;BME280;36461;52.018;21.036;2022-08-01T01:49:09;99920.30;;;15.22;100.00
35507;BME280;36461;52.018;21.036;2022-08-01T01:51:38;99915.36;;;15.24;100.00
35507;BME280;36461;52.018;21.036;2022-08-01T01:54:08;99914.20;;;15.21;100.00
35507;BME280;36461;52.018;21.036;2022-08-01T01:56:36;99908.88;;;15.16;100.00
35507;BME280;36461;52.018;21.036;2022-08-01T01:59:05;99913.38;;;15.14;100.00
35507;BME280;36461;52.018;21.036;2022-08-01T02:01:33;99918.70;;;15.12;100.00
35507;BME280;36461;52.018;21.036;2022-08-01T02:04:01;99913.19;;;15.09;100.00
35507;BME280;36461;52.018;21.036;2022-08-01T02:06:29;99909.80;;;15.07;100.00
35507;BME280;36461;52.018;21.036;2022-08-01T02:08:58;99910.37;;;15.05;100.00
35507;BME280;36461;52.018;21.036;2022-08-01T02:11:27;99909.70;;;15.02;100.00
35507;BME280;36461;52.018;21.036;2022-08-01T02:14:01;99911.65;;;14.98;100.00
35507;BME280;36461;52.018;21.036;2022-08-01T02:16:31;99908.75;;;14.96;100.00
35507;BME280;36461;52.018;21.036;2022-08-01T02:19:00;99909.67;;;14.94;100.00
35507;BME280;36461;52.018;21.036;2022-08-01T02:21:37;99908.93;;;14.92;100.00
35507;BME280;36461;52.018;21.036;2022-08-01T02:24:08;99909.66;;;14.87;100.00
35507;BME280;36461;52.018;21.036;2022-08-01T02:26:46;99916.18;;;14.80;100.00
35507;BME280;36461;52.018;21.036;2022-08-01T02:29:19;99921.11;;;14.78;100.00
35507;BME280;36461;52.018;21.036;2022-08-01T02:31:50;99925.57;;;14.75;100.00
35507;BME280;36461;52.018;21.036;2022-08-01T02:34:21;99921.45;;;14.71;100.00
35507;BME280;36461;52.018;21.036;2022-08-01T02:36:51;99919.27;;;14.64;100.00
35507;BME280;36461;52.018;21.036;2022-08-01T02:39:21;99916.60;;;14.56;100.00
35507;BME280;36461;52.018;21.036;2022-08-01T02:41:50;99922.16;;;14.50;100.00
35507;BME280;36461;52.018;21.036;2022-08-01T02:44:28;99918.52;;;14.46;100.00
35507;BME280;36461;52.018;21.036;2022-08-01T02:47:00;99914.01;;;14.40;100.00
35507;BME280;36461;52.018;21.036;2022-08-01T02:49:32;99921.10;;;14.38;100.00
35507;BME280;36461;52.018;21.036;2022-08-01T02:52:05;99921.81;;;14.33;100.00
35507;BME280;36461;52.018;21.036;2022-08-01T02:54:34;99919.14;;;14.26;100.00
35507;BME280;36461;52.018;21.036;2022-08-01T02:57:02;99922.41;;;14.22;100.00
35507;BME280;36461;52.018;21.036;2022-08-01T02:59:31;99924.72;;;14.20;100.00
35507;BME280;36461;52.018;21.036;2022-08-01T03:02:00;99925.91;;;14.14;100.00
35507;BME280;36461;52.018;21.036;2022-08-01T03:04:31;99928.30;;;14.10;100.00
35507;BME280;36461;52.018;21.036;2022-08-01T03:07:00;99930.44;;;14.10;100.00
35507;BME280;36461;52.018;21.036;2022-08-01T03:09:30;99923.23;;;14.07;100.00
35507;BME280;36461;52.018;21.036;2022-08-01T03:12:00;99923.88;;;14.03;100.00
35507;BME280;36461;52.018;21.036;2022-08-01T03:14:29;99925.63;;;14.03;100.00
35507;BME280;36461;52.018;21.036;2022-08-01T03:16:59;99925.09;;;14.05;100.00
35507;BME280;36461;52.018;21.036;2022-08-01T03:19:27;99921.92;;;14.07;100.00
35507;BME280;36461;52.018;21.036;2022-08-01T03:21:55;99923.09;;;14.10;100.00
35507;BME280;36461;52.018;21.036;2022-08-01T03:24:25;99926.52;;;14.10;100.00
35507;BME280;36461;52.018;21.036;2022-08-01T03:26:55;99920.69;;;14.14;100.00
35507;BME280;36461;52.018;21.036;2022-08-01T03:29:25;99920.89;;;14.18;100.00
35507;BME280;36461;52.018;21.036;2022-08-01T03:31:52;99920.54;;;14.24;100.00
35507;BME280;36461;52.018;21.036;2022-08-01T03:34:19;99923.00;;;14.28;100.00
35507;BME280;36461;52.018;21.036;2022-08-01T03:37:03;99937.78;;;14.36;100.00
35507;BME280;36461;52.018;21.036;2022-08-01T03:39:40;99934.98;;;14.39;100.00
35507;BME280;36461;52.018;21.036;2022-08-01T03:42:11;99932.20;;;14.42;100.00
35507;BME280;36461;52.018;21.036;2022-08-01T03:44:47;99939.80;;;14.47;100.00
35507;BME280;36461;52.018;21.036;2022-08-01T03:47:16;99946.05;;;14.51;100.00
35507;BME280;36461;52.018;21.036;2022-08-01T03:49:44;99943.73;;;14.54;100.00
35507;BME280;36461;52.018;21.036;2022-08-01T03:52:13;99947.77;;;14.59;100.00
35507;BME280;36461;52.018;21.036;2022-08-01T03:54:47;99952.69;;;14.66;100.00
35507;BME280;36461;52.018;21.036;2022-08-01T03:57:13;99954.02;;;14.73;100.00
35507;BME280;36461;52.018;21.036;2022-08-01T03:59:41;99954.16;;;14.79;100.00
35507;BME280;36461;52.018;21.036;2022-08-01T04:02:09;99954.45;;;14.81;100.00
35507;BME280;36461;52.018;21.036;2022-08-01T04:04:36;99953.34;;;14.85;100.00
35507;BME280;36461;52.018;21.036;2022-08-01T04:07:02;99961.92;;;14.87;100.00
35507;BME280;36461;52.018;21.036;2022-08-01T04:09:33;99960.89;;;14.83;100.00
35507;BME280;36461;52.018;21.036;2022-08-01T04:12:01;99968.44;;;14.80;100.00
35507;BME280;36461;52.018;21.036;2022-08-01T04:14:27;99976.08;;;14.76;100.00
35507;BME280;36461;52.018;21.036;2022-08-01T04:16:54;99975.69;;;14.75;100.00
35507;BME280;36461;52.018;21.036;2022-08-01T04:19:21;99970.76;;;14.78;100.00
35507;BME280;36461;52.018;21.036;2022-08-01T04:21:47;99976.19;;;14.82;100.00
35507;BME280;36461;52.018;21.036;2022-08-01T04:24:15;99973.77;;;14.86;100.00
35507;BME280;36461;52.018;21.036;2022-08-01T04:26:45;99968.84;;;14.88;100.00
35507;BME280;36461;52.018;21.036;2022-08-01T04:29:13;99977.17;;;14.95;100.00
35507;BME280;36461;52.018;21.036;2022-08-01T04:31:43;99974.77;;;14.99;100.00
35507;BME280;36461;52.018;21.036;2022-08-01T04:34:15;99974.77;;;15.06;100.00
35507;BME280;36461;52.018;21.036;2022-08-01T04:36:43;99978.98;;;15.09;100.00
35507;BME280;36461;52.018;21.036;2022-08-01T04:39:12;99979.09;;;15.15;100.00
35507;BME280;36461;52.018;21.036;2022-08-01T04:41:41;99977.53;;;15.19;100.00
35507;BME280;36461;52.018;21.036;2022-08-01T04:44:08;99977.54;;;15.26;100.00
35507;BME280;36461;52.018;21.036;2022-08-01T04:46:35;99975.50;;;15.32;100.00
35507;BME280;36461;52.018;21.036;2022-08-01T04:49:05;99979.43;;;15.39;100.00
35507;BME280;36461;52.018;21.036;2022-08-01T04:51:33;99983.30;;;15.48;100.00
35507;BME280;36461;52.018;21.036;2022-08-01T04:54:00;99986.03;;;15.60;100.00
35507;BME280;36461;52.018;21.036;2022-08-01T04:56:27;99986.77;;;15.63;100.00
35507;BME280;36461;52.018;21.036;2022-08-01T04:58:53;99983.61;;;15.65;100.00
35507;BME280;36461;52.018;21.036;2022-08-01T05:01:39;99990.91;;;15.74;100.00
35507;BME280;36461;52.018;21.036;2022-08-01T05:04:06;99993.00;;;15.83;100.00
35507;BME280;36461;52.018;21.036;2022-08-01T05:06:32;99992.71;;;15.88;100.00
35507;BME280;36461;52.018;21.036;2022-08-01T05:08:58;99993.45;;;15.90;100.00
35507;BME280;36461;52.018;21.036;2022-08-01T05:11:25;99997.01;;;15.96;100.00
35507;BME280;36461;52.018;21.036;2022-08-01T05:13:51;99996.92;;;16.05;100.00
35507;BME280;36461;52.018;21.036;2022-08-01T05:16:17;100000.17;;;16.08;100.00
35507;BME280;36461;52.018;21.036;2022-08-01T05:18:44;99998.77;;;16.10;100.00
35507;BME280;36461;52.018;21.036;2022-08-01T05:21:10;100001.60;;;16.14;100.00
35507;BME280;36461;52.018;21.036;2022-08-01T05:23:37;100007.30;;;16.21;100.00
35507;BME280;36461;52.018;21.036;2022-08-01T05:26:03;100008.02;;;16.30;100.00
35507;BME280;36461;52.018;21.036;2022-08-01T05:28:30;100011.02;;;16.31;100.00
35507;BME280;36461;52.018;21.036;2022-08-01T05:30:57;100005.41;;;16.37;100.00
35507;BME280;36461;52.018;21.036;2022-08-01T05:33:23;100005.41;;;16.37;100.00
35507;BME280;36461;52.018;21.036;2022-08-01T05:35:50;100009.96;;;16.41;100.00
35507;BME280;36461;52.018;21.036;2022-08-01T05:38:16;100009.89;;;16.42;100.00
35507;BME280;36461;52.018;21.036;2022-08-01T05:40:43;100011.73;;;16.48;100.00
35507;BME280;36461;52.018;21.036;2022-08-01T05:43:09;100016.77;;;16.58;100.00
35507;BME280;36461;52.018;21.036;2022-08-01T05:45:35;100017.12;;;16.73;100.00
35507;BME280;36461;52.018;21.036;2022-08-01T05:48:03;100015.56;;;16.98;100.00
35507;BME280;36461;52.018;21.036;2022-08-01T05:50:30;100026.72;;;17.15;100.00
35507;BME280;36461;52.018;21.036;2022-08-01T05:52:56;100023.70;;;17.21;99.56
35507;BME280;36461;52.018;21.036;2022-08-01T05:55:23;100028.23;;;17.32;99.20
35507;BME280;36461;52.018;21.036;2022-08-01T05:57:49;100024.29;;;17.52;99.12
35507;BME280;36461;52.018;21.036;2022-08-01T06:00:16;100027.74;;;17.52;98.41
35507;BME280;36461;52.018;21.036;2022-08-01T06:02:43;100028.01;;;17.42;97.50
35507;BME280;36461;52.018;21.036;2022-08-01T06:05:10;100018.68;;;17.10;95.83
35507;BME280;36461;52.018;21.036;2022-08-01T06:07:37;100023.16;;;16.88;96.29
35507;BME280;36461;52.018;21.036;2022-08-01T06:10:06;100023.43;;;16.84;97.02
35507;BME280;36461;52.018;21.036;2022-08-01T06:12:34;100025.05;;;16.79;96.95
35507;BME280;36461;52.018;21.036;2022-08-01T06:15:04;100030.87;;;16.70;96.75
35507;BME280;36461;52.018;21.036;2022-08-01T06:17:31;100028.45;;;16.59;96.95
35507;BME280;36461;52.018;21.036;2022-08-01T06:19:58;100029.22;;;16.61;97.44
35507;BME280;36461;52.018;21.036;2022-08-01T06:22:25;100027.60;;;16.66;97.79
35507;BME280;36461;52.018;21.036;2022-08-01T06:24:52;100031.61;;;16.79;98.37
35507;BME280;36461;52.018;21.036;2022-08-01T06:27:19;100030.02;;;16.91;98.34
35507;BME280;36461;52.018;21.036;2022-08-01T06:29:47;100033.25;;;17.02;98.23
35507;BME280;36461;52.018;21.036;2022-08-01T06:32:14;100039.59;;;17.05;97.72
35507;BME280;36461;52.018;21.036;2022-08-01T06:34:41;100042.16;;;16.92;96.18
35507;BME280;36461;52.018;21.036;2022-08-01T06:37:08;100032.81;;;16.81;96.44
35507;BME280;36461;52.018;21.036;2022-08-01T06:39:34;100033.64;;;16.81;96.89
35507;BME280;36461;52.018;21.036;2022-08-01T06:42:01;100032.26;;;16.75;96.71
35507;BME280;36461;52.018;21.036;2022-08-01T06:44:27;100032.16;;;16.77;97.25
35507;BME280;36461;52.018;21.036;2022-08-01T06:46:53;100034.02;;;16.82;97.76
35507;BME280;36461;52.018;21.036;2022-08-01T06:49:20;100031.13;;;16.87;98.03
35507;BME280;36461;52.018;21.036;2022-08-01T06:51:46;100029.16;;;16.90;98.13
35507;BME280;36461;52.018;21.036;2022-08-01T06:54:13;100035.88;;;16.94;98.46
35507;BME280;36461;52.018;21.036;2022-08-01T06:56:42;100029.15;;;16.98;97.88
35507;BME280;36461;52.018;21.036;2022-08-01T06:59:09;100026.87;;;16.99;97.50
35507;BME280;36461;52.018;21.036;2022-08-01T07:01:35;100026.21;;;17.02;97.05
35507;BME280;36461;52.018;21.036;2022-08-01T07:04:03;100020.14;;;17.02;97.59
35507;BME280;36461;52.018;21.036;2022-08-01T07:06:29;100026.55;;;17.10;97.84
35507;BME280;36461;52.018;21.036;2022-08-01T07:08:56;100022.89;;;17.13;97.18
35507;BME280;36461;52.018;21.036;2022-08-01T07:11:23;100024.09;;;17.15;96.94
35507;BME280;36461;52.018;21.036;2022-08-01T07:13:50;100025.95;;;17.20;96.91
35507;BME280;36461;52.018;21.036;2022-08-01T07:16:16;100025.77;;;17.23;96.64
35507;BME280;36461;52.018;21.036;2022-08-01T07:18:43;100026.55;;;17.31;97.27
35507;BME280;36461;52.018;21.036;2022-08-01T07:21:10;100026.87;;;17.39;97.04
35507;BME280;36461;52.018;21.036;2022-08-01T07:23:37;100026.48;;;17.45;97.20
35507;BME280;36461;52.018;21.036;2022-08-01T07:26:03;100026.08;;;17.51;96.81
35507;BME280;36461;52.018;21.036;2022-08-01T07:28:30;100021.77;;;17.50;95.48
35507;BME280;36461;52.018;21.036;2022-08-01T07:30:57;100020.78;;;17.58;95.29
35507;BME280;36461;52.018;21.036;2022-08-01T07:33:23;100019.25;;;17.61;95.05
35507;BME280;36461;52.018;21.036;2022-08-01T07:35:49;100023.16;;;17.69;95.56
35507;BME280;36461;52.018;21.036;2022-08-01T07:38:16;100017.84;;;17.76;95.69
35507;BME280;36461;52.018;21.036;2022-08-01T07:40:43;100021.72;;;17.83;95.08
35507;BME280;36461;52.018;21.036;2022-08-01T07:43:10;100012.08;;;17.84;93.31
35507;BME280;36461;52.018;21.036;2022-08-01T07:45:37;100006.39;;;17.90;94.15
35507;BME280;36461;52.018;21.036;2022-08-01T07:48:05;100018.91;;;17.99;93.97
35507;BME280;36461;52.018;21.036;2022-08-01T07:50:32;100011.67;;;18.03;93.02
35507;BME280;36461;52.018;21.036;2022-08-01T07:52:59;100015.09;;;18.10;93.08
35507;BME280;36461;52.018;21.036;2022-08-01T07:55:25;100018.12;;;18.17;92.63
35507;BME280;36461;52.018;21.036;2022-08-01T07:57:53;100013.96;;;18.20;91.78
35507;BME280;36461;52.018;21.036;2022-08-01T08:00:19;100007.66;;;18.23;91.06
35507;BME280;36461;52.018;21.036;2022-08-01T08:02:46;100011.62;;;18.28;91.40
35507;BME280;36461;52.018;21.036;2022-08-01T08:05:12;100016.72;;;18.37;91.17
35507;BME280;36461;52.018;21.036;2022-08-01T08:07:39;100024.04;;;18.45;91.51
35507;BME280;36461;52.018;21.036;2022-08-01T08:10:07;100020.05;;;18.52;90.96
35507;BME280;36461;52.018;21.036;2022-08-01T08:12:34;100018.62;;;18.54;90.42
35507;BME280;36461;52.018;21.036;2022-08-01T08:15:01;100014.50;;;18.63;89.90
35507;BME280;36461;52.018;21.036;2022-08-01T08:17:29;100022.19;;;18.71;90.22
35507;BME280;36461;52.018;21.036;2022-08-01T08:19:57;100024.03;;;18.82;90.27
35507;BME280;36461;52.018;21.036;2022-08-01T08:22:23;100022.45;;;18.92;89.67
35507;BME280;36461;52.018;21.036;2022-08-01T08:24:50;100032.42;;;19.00;89.46
35507;BME280;36461;52.018;21.036;2022-08-01T08:27:17;100025.87;;;19.06;88.76
35507;BME280;36461;52.018;21.036;2022-08-01T08:29:43;100028.88;;;19.13;88.73
35507;BME280;36461;52.018;21.036;2022-08-01T08:32:10;100035.11;;;19.17;87.71
35507;BME280;36461;52.018;21.036;2022-08-01T08:34:36;100034.65;;;19.18;85.16
35507;BME280;36461;52.018;21.036;2022-08-01T08:37:03;100037.98;;;19.20;86.21
35507;BME280;36461;52.018;21.036;2022-08-01T08:39:29;100046.27;;;19.26;86.12
35507;BME280;36461;52.018;21.036;2022-08-01T08:41:59;100039.59;;;19.34;86.49
35507;BME280;36461;52.018;21.036;2022-08-01T08:44:28;100038.77;;;19.39;86.32
35507;BME280;36461;52.018;21.036;2022-08-01T08:46:54;100043.59;;;19.45;85.34
35507;BME280;36461;52.018;21.036;2022-08-01T08:49:24;100038.82;;;19.50;85.27
35507;BME280;36461;52.018;21.036;2022-08-01T08:51:53;100035.00;;;19.54;85.35
35507;BME280;36461;52.018;21.036;2022-08-01T08:54:22;100044.47;;;19.62;85.63
35507;BME280;36461;52.018;21.036;2022-08-01T08:56:54;100042.70;;;19.69;85.18
35507;BME280;36461;52.018;21.036;2022-08-01T08:59:21;100043.90;;;19.76;85.09
35507;BME280;36461;52.018;21.036;2022-08-01T09:01:50;100049.69;;;19.81;83.33
35507;BME280;36461;52.018;21.036;2022-08-01T09:04:17;100046.32;;;19.85;83.25
35507;BME280;36461;52.018;21.036;2022-08-01T09:06:44;100051.86;;;19.93;82.56
35507;BME280;36461;52.018;21.036;2022-08-01T09:09:11;100048.98;;;19.96;81.38
35507;BME280;36461;52.018;21.036;2022-08-01T09:11:37;100054.95;;;19.98;81.43
35507;BME280;36461;52.018;21.036;2022-08-01T09:14:10;100053.67;;;20.04;81.03
35507;BME280;36461;52.018;21.036;2022-08-01T09:16:44;100063.02;;;20.08;80.92
35507;BME280;36461;52.018;21.036;2022-08-01T09:19:18;100062.27;;;20.11;80.13
35507;BME280;36461;52.018;21.036;2022-08-01T09:21:58;100061.32;;;20.18;80.31
35507;BME280;36461;52.018;21.036;2022-08-01T09:24:26;100064.31;;;20.25;80.02
35507;BME280;36461;52.018;21.036;2022-08-01T09:26:55;100066.98;;;20.31;79.09
35507;BME280;36461;52.018;21.036;2022-08-01T09:29:24;100068.63;;;20.32;78.84
35507;BME280;36461;52.018;21.036;2022-08-01T09:31:53;100065.77;;;20.35;78.26
35507;BME280;36461;52.018;21.036;2022-08-01T09:34:29;100069.72;;;20.40;77.22
35507;BME280;36461;52.018;21.036;2022-08-01T09:36:58;100070.66;;;20.45;77.93
35507;BME280;36461;52.018;21.036;2022-08-01T09:39:32;100067.93;;;20.47;76.46
35507;BME280;36461;52.018;21.036;2022-08-01T09:42:25;100061.21;;;20.48;75.16
35507;BME280;36461;52.018;21.036;2022-08-01T09:44:49;100066.97;;;20.53;75.14
35507;BME280;36461;52.018;21.036;2022-08-01T09:47:16;100067.78;;;20.59;75.37
35507;BME280;36461;52.018;21.036;2022-08-01T09:49:54;100065.74;;;20.63;74.37
35507;BME280;36461;52.018;21.036;2022-08-01T09:52:24;100069.20;;;20.63;72.99
35507;BME280;36461;52.018;21.036;2022-08-01T09:54:57;100062.36;;;20.67;73.56
35507;BME280;36461;52.018;21.036;2022-08-01T09:57:27;100060.23;;;20.72;73.57
35507;BME280;36461;52.018;21.036;2022-08-01T09:59:59;100056.03;;;20.81;73.90
35507;BME280;36461;52.018;21.036;2022-08-01T10:02:38;100062.47;;;20.88;73.68
35507;BME280;36461;52.018;21.036;2022-08-01T10:05:10;100064.27;;;20.93;73.54
35507;BME280;36461;52.018;21.036;2022-08-01T10:07:55;100070.84;;;20.99;74.31
35507;BME280;36461;52.018;21.036;2022-08-01T10:10:26;100069.98;;;21.04;73.62
35507;BME280;36461;52.018;21.036;2022-08-01T10:12:55;100062.41;;;21.10;72.89
35507;BME280;36461;52.018;21.036;2022-08-01T10:15:26;100062.05;;;21.15;72.10
35507;BME280;36461;52.018;21.036;2022-08-01T10:17:59;100057.95;;;21.17;71.80
35507;BME280;36461;52.018;21.036;2022-08-01T10:20:26;100064.39;;;21.24;71.52
35507;BME280;36461;52.018;21.036;2022-08-01T10:22:55;100056.31;;;21.31;72.15
35507;BME280;36461;52.018;21.036;2022-08-01T10:25:35;100064.80;;;21.40;71.62
35507;BME280;36461;52.018;21.036;2022-08-01T10:28:17;100057.23;;;21.41;70.29
35507;BME280;36461;52.018;21.036;2022-08-01T10:30:34;100061.79;;;21.45;71.72
35507;BME280;36461;52.018;21.036;2022-08-01T10:33:00;100059.11;;;21.56;72.25
35507;BME280;36461;52.018;21.036;2022-08-01T10:35:27;100055.23;;;21.60;71.57
35507;BME280;36461;52.018;21.036;2022-08-01T10:37:53;100059.66;;;21.66;70.97
35507;BME280;36461;52.018;21.036;2022-08-01T10:40:22;100058.30;;;21.71;70.90
35507;BME280;36461;52.018;21.036;2022-08-01T10:42:48;100061.84;;;21.82;70.45
35507;BME280;36461;52.018;21.036;2022-08-01T10:45:16;100053.19;;;21.85;69.13
35507;BME280;36461;52.018;21.036;2022-08-01T10:50:39;100053.90;;;22.03;69.13
35507;BME280;36461;52.018;21.036;2022-08-01T10:53:15;100048.38;;;22.16;68.36
35507;BME280;36461;52.018;21.036;2022-08-01T10:58:36;100048.57;;;22.39;68.41
35507;BME280;36461;52.018;21.036;2022-08-01T11:03:58;100048.13;;;22.50;66.89
35507;BME280;36461;52.018;21.036;2022-08-01T11:09:30;100047.25;;;22.65;66.62
35507;BME280;36461;52.018;21.036;2022-08-01T11:17:38;100040.18;;;22.85;66.08
35507;BME280;36461;52.018;21.036;2022-08-01T11:20:19;100055.63;;;22.89;64.96
35507;BME280;36461;52.018;21.036;2022-08-01T11:30:48;100041.78;;;23.11;63.54
35507;BME280;36461;52.018;21.036;2022-08-01T11:41:34;100050.65;;;23.55;64.52
35507;BME280;36461;52.018;21.036;2022-08-01T11:44:14;100051.53;;;23.59;63.58
35507;BME280;36461;52.018;21.036;2022-08-01T11:47:05;100046.17;;;23.55;62.63
35507;BME280;36461;52.018;21.036;2022-08-01T11:52:17;100044.53;;;23.35;62.18
35507;BME280;36461;52.018;21.036;2022-08-01T11:54:51;100040.52;;;23.21;62.39
35507;BME280;36461;52.018;21.036;2022-08-01T11:57:22;100045.28;;;23.11;62.76
35507;BME280;36461;52.018;21.036;2022-08-01T11:59:55;100050.45;;;23.03;61.65
35507;BME280;36461;52.018;21.036;2022-08-01T12:02:25;100050.84;;;22.99;62.54
35507;BME280;36461;52.018;21.036;2022-08-01T12:05:02;100044.94;;;23.01;62.68
35507;BME280;36461;52.018;21.036;2022-08-01T12:07:33;100047.37;;;23.08;62.28
35507;BME280;36461;52.018;21.036;2022-08-01T12:10:10;100042.64;;;23.11;62.06
35507;BME280;36461;52.018;21.036;2022-08-01T12:12:46;100037.09;;;23.15;61.83
35507;BME280;36461;52.018;21.036;2022-08-01T12:15:18;100043.92;;;23.17;60.70
35507;BME280;36461;52.018;21.036;2022-08-01T12:17:58;100040.14;;;23.10;61.09
35507;BME280;36461;52.018;21.036;2022-08-01T12:20:31;100037.30;;;23.17;62.23
35507;BME280;36461;52.018;21.036;2022-08-01T12:23:01;100046.91;;;23.28;61.56
35507;BME280;36461;52.018;21.036;2022-08-01T12:25:33;100040.29;;;23.28;61.38
35507;BME280;36461;52.018;21.036;2022-08-01T12:28:05;100031.31;;;23.25;61.09
35507;BME280;36461;52.018;21.036;2022-08-01T12:30:34;100029.91;;;23.31;61.46
35507;BME280;36461;52.018;21.036;2022-08-01T12:33:03;100032.21;;;23.39;62.00
35507;BME280;36461;52.018;21.036;2022-08-01T12:35:31;100028.89;;;23.51;61.45
35507;BME280;36461;52.018;21.036;2022-08-01T12:38:01;100028.09;;;23.65;61.59
35507;BME280;36461;52.018;21.036;2022-08-01T12:40:31;100025.09;;;23.73;60.40
35507;BME280;36461;52.018;21.036;2022-08-01T12:43:06;100030.70;;;23.84;61.44
35507;BME280;36461;52.018;21.036;2022-08-01T12:45:36;100031.61;;;23.99;60.24
35507;BME280;36461;52.018;21.036;2022-08-01T12:48:15;100032.38;;;24.09;60.39
35507;BME280;36461;52.018;21.036;2022-08-01T12:50:44;100035.13;;;24.17;59.93
35507;BME280;36461;52.018;21.036;2022-08-01T12:53:13;100033.03;;;24.21;59.94
35507;BME280;36461;52.018;21.036;2022-08-01T12:55:44;100038.69;;;24.22;59.26
35507;BME280;36461;52.018;21.036;2022-08-01T12:58:17;100025.53;;;24.16;59.29
35507;BME280;36461;52.018;21.036;2022-08-01T13:00:47;100024.93;;;24.08;58.33
35507;BME280;36461;52.018;21.036;2022-08-01T13:03:17;100029.06;;;24.07;58.81
35507;BME280;36461;52.018;21.036;2022-08-01T13:05:47;100029.73;;;24.09;58.54
35507;BME280;36461;52.018;21.036;2022-08-01T13:08:18;100022.28;;;24.08;58.60
35507;BME280;36461;52.018;21.036;2022-08-01T13:10:46;100031.81;;;24.15;59.07
35507;BME280;36461;52.018;21.036;2022-08-01T13:13:14;100021.95;;;24.21;59.38
35507;BME280;36461;52.018;21.036;2022-08-01T13:15:43;100026.50;;;24.29;59.28
35507;BME280;36461;52.018;21.036;2022-08-01T13:18:28;100022.72;;;24.32;59.37
35507;BME280;36461;52.018;21.036;2022-08-01T13:21:16;100021.39;;;24.32;57.93
35507;BME280;36461;52.018;21.036;2022-08-01T13:24:10;100025.38;;;24.32;58.13
35507;BME280;36461;52.018;21.036;2022-08-01T13:26:52;100026.55;;;24.33;58.20
35507;BME280;36461;52.018;21.036;2022-08-01T13:29:39;100024.40;;;24.33;58.18
35507;BME280;36461;52.018;21.036;2022-08-01T13:32:18;100021.75;;;24.33;58.38
35507;BME280;36461;52.018;21.036;2022-08-01T13:34:46;100015.57;;;24.28;57.98
35507;BME280;36461;52.018;21.036;2022-08-01T13:37:13;100019.20;;;24.27;56.84